Time;durP1;ratioP1;P1;durP2;ratioP2;P2;SDS_P1;SDS_P2;PMS_P1;PMS_P2;Temp;Humidity;BMP_temperature;BMP_pressure;BME280_temperature;BME280_humidity;BME280_pressure;Samples;Min_cycle;Max_cycle;Signal;HPM_P1;HPM_P2
2021/10/05 00:02:23;;;;;;;6.80;4.43;;;;;;;;;;10496561;28;20044;-79
2021/10/05 00:07:24;;;;;;;7.28;4.28;;;;;;;;;;10496720;28;20111;-79
2021/10/05 00:12:24;;;;;;;9.25;4.70;;;;;;;;;;10496476;28;20037;-79
2021/10/05 00:17:25;;;;;;;5.17;3.57;;;;;;;;;;10502127;28;20374;-79
2021/10/05 00:22:26;;;;;;;6.07;3.97;;;;;;;;;;10504336;28;20461;-79
2021/10/05 00:27:26;;;;;;;10.40;4.60;;;;;;;;;;10503953;28;20033;-80
2021/10/05 00:32:27;;;;;;;7.50;4.00;;;;;;;;;;10503967;28;20028;-80
2021/10/05 00:37:28;;;;;;;6.38;4.22;;;;;;;;;;10503364;28;20496;-80
2021/10/05 00:42:28;;;;;;;7.75;4.60;;;;;;;;;;10503701;28;20565;-80
2021/10/05 00:47:29;;;;;;;13.20;4.00;;;;;;;;;;10503304;28;20032;-80
2021/10/05 00:52:29;;;;;;;10.07;4.20;;;;;;;;;;10503088;28;20028;-81
2021/10/05 00:57:30;;;;;;;6.22;3.78;;;;;;;;;;10502900;28;20812;-81
2021/10/05 01:02:30;;;;;;;5.87;3.90;;;;;;;;;;10502324;28;20048;-80
2021/10/05 01:07:31;;;;;;;12.65;4.35;;;;;;;;;;10502517;28;20060;-80
2021/10/05 01:12:31;;;;;;;7.87;3.63;;;;;;;;;;10502052;28;20024;-82
2021/10/05 01:17:32;;;;;;;6.15;3.70;;;;;;;;;;10501999;28;20052;-81
2021/10/05 01:22:33;;;;;;;10.73;4.00;;;;;;;;;;10501741;28;20048;-80
2021/10/05 01:27:47;;;;;;;9.45;3.90;;;;;;;;;;10501363;28;20040;-80
2021/10/05 01:32:48;;;;;;;4.75;3.30;;;;;;;;;;10501664;28;20028;-80
2021/10/05 01:37:49;;;;;;;6.30;3.47;;;;;;;;;;10501257;28;20470;-80
2021/10/05 01:42:49;;;;;;;5.73;3.97;;;;;;;;;;10500635;28;20048;-80
2021/10/05 01:47:49;;;;;;;5.93;3.90;;;;;;;;;;10498065;28;20862;-81
2021/10/05 01:52:50;;;;;;;6.33;4.10;;;;;;;;;;10499711;28;20078;-81
2021/10/05 01:57:50;;;;;;;8.10;3.60;;;;;;;;;;10499443;28;20850;-81
2021/10/05 02:02:53;;;;;;;5.75;3.53;;;;;;;;;;10500307;28;20438;-81
2021/10/05 02:07:53;;;;;;;5.35;3.47;;;;;;;;;;10499817;28;20521;-80
2021/10/05 02:12:54;;;;;;;6.63;3.27;;;;;;;;;;10499264;28;20119;-80
2021/10/05 02:17:54;;;;;;;4.77;3.33;;;;;;;;;;10499051;28;20036;-80
2021/10/05 02:22:55;;;;;;;5.65;3.53;;;;;;;;;;10499532;28;20059;-80
2021/10/05 02:27:55;;;;;;;5.80;3.50;;;;;;;;;;10499270;28;20426;-80
2021/10/05 02:32:55;;;;;;;5.88;3.33;;;;;;;;;;10497733;28;20037;-80
2021/10/05 02:37:56;;;;;;;4.97;3.10;;;;;;;;;;10497930;28;20028;-80
2021/10/05 02:42:56;;;;;;;5.05;3.33;;;;;;;;;;10498734;28;20131;-81
2021/10/05 02:47:57;;;;;;;4.70;3.55;;;;;;;;;;10497789;28;20040;-81
2021/10/05 02:52:57;;;;;;;6.37;3.83;;;;;;;;;;10498417;28;20358;-81
2021/10/05 02:57:57;;;;;;;6.43;3.80;;;;;;;;;;10497733;28;20146;-82
2021/10/05 03:02:58;;;;;;;7.30;3.47;;;;;;;;;;10497837;28;20036;-81
2021/10/05 03:07:58;;;;;;;8.03;3.33;;;;;;;;;;10497403;28;20209;-81
2021/10/05 03:12:59;;;;;;;7.38;3.70;;;;;;;;;;10497426;28;20032;-81
2021/10/05 03:17:59;;;;;;;5.43;3.20;;;;;;;;;;10497422;28;20107;-82
2021/10/05 03:22:59;;;;;;;7.83;3.60;;;;;;;;;;10497928;28;20828;-81
2021/10/05 03:28:00;;;;;;;4.27;3.30;;;;;;;;;;10497734;28;20450;-80
2021/10/05 03:33:00;;;;;;;5.90;3.30;;;;;;;;;;10496960;28;20043;-80
2021/10/05 03:38:01;;;;;;;4.97;3.78;;;;;;;;;;10497535;28;20115;-82
2021/10/05 03:43:01;;;;;;;5.68;3.03;;;;;;;;;;10497235;28;20053;-81
2021/10/05 03:48:02;;;;;;;4.70;3.57;;;;;;;;;;10498646;28;20377;-81
2021/10/05 03:53:02;;;;;;;3.88;3.45;;;;;;;;;;10504478;28;20067;-81
2021/10/05 03:58:03;;;;;;;5.28;2.70;;;;;;;;;;10505202;28;20028;-80
2021/10/05 04:03:03;;;;;;;3.60;2.97;;;;;;;;;;10504930;28;20063;-81
2021/10/05 04:08:04;;;;;;;3.70;3.30;;;;;;;;;;10504801;28;20037;-80
2021/10/05 04:13:05;;;;;;;6.65;3.42;;;;;;;;;;10504362;28;20469;-80
2021/10/05 04:18:05;;;;;;;4.18;3.00;;;;;;;;;;10486822;28;20029;-81
2021/10/05 04:23:06;;;;;;;3.72;2.75;;;;;;;;;;10503986;28;20036;-81
2021/10/05 04:28:07;;;;;;;6.35;3.35;;;;;;;;;;10504371;28;20477;-80
2021/10/05 04:33:07;;;;;;;6.10;3.25;;;;;;;;;;10503762;28;20060;-81
2021/10/05 04:38:07;;;;;;;7.83;3.83;;;;;;;;;;10503730;28;20104;-81
2021/10/05 04:43:08;;;;;;;7.60;3.10;;;;;;;;;;10502507;28;20045;-82
2021/10/05 04:48:08;;;;;;;3.97;2.90;;;;;;;;;;10503677;28;20024;-81
2021/10/05 04:53:09;;;;;;;5.60;3.63;;;;;;;;;;10502809;28;20024;-81
2021/10/05 04:58:09;;;;;;;4.40;3.60;;;;;;;;;;10502849;28;20520;-81
2021/10/05 05:03:09;;;;;;;4.57;3.40;;;;;;;;;;10501914;28;20446;-79
2021/10/05 05:08:10;;;;;;;4.17;2.77;;;;;;;;;;10501997;28;20374;-79
2021/10/05 05:13:10;;;;;;;4.87;3.00;;;;;;;;;;10501167;28;20036;-79
2021/10/05 05:18:10;;;;;;;4.20;2.97;;;;;;;;;;10501921;28;20165;-80
2021/10/05 05:23:12;;;;;;;3.63;2.70;;;;;;;;;;10501854;28;20467;-81
2021/10/05 05:28:14;;;;;;;5.55;3.10;;;;;;;;;;10501773;28;20063;-81
2021/10/05 05:33:15;;;;;;;4.28;3.00;;;;;;;;;;10501380;28;20028;-80
2021/10/05 05:38:16;;;;;;;7.78;3.53;;;;;;;;;;10501300;28;20024;-81
2021/10/05 05:43:16;;;;;;;3.83;3.25;;;;;;;;;;10500658;28;20128;-80
2021/10/05 05:48:16;;;;;;;7.10;4.70;;;;;;;;;;10499850;28;20028;-82
2021/10/05 05:53:18;;;;;;;5.15;3.92;;;;;;;;;;10500317;28;20052;-83
2021/10/05 05:58:18;;;;;;;3.35;3.05;;;;;;;;;;10499037;28;20029;-80
2021/10/05 06:03:18;;;;;;;5.73;3.03;;;;;;;;;;10500251;28;20516;-81
2021/10/05 06:08:19;;;;;;;7.03;3.50;;;;;;;;;;10498323;28;20449;-82
2021/10/05 06:13:19;;;;;;;8.20;3.17;;;;;;;;;;10498189;28;20031;-83
2021/10/05 06:18:20;;;;;;;7.37;3.90;;;;;;;;;;10495874;28;20958;-84
2021/10/05 06:23:20;;;;;;;14.50;4.07;;;;;;;;;;10498211;28;20082;-82
2021/10/05 06:28:21;;;;;;;7.93;3.53;;;;;;;;;;10498264;28;20438;-81
2021/10/05 06:33:22;;;;;;;5.53;3.60;;;;;;;;;;10498118;28;20103;-82
2021/10/05 06:38:23;;;;;;;7.15;3.70;;;;;;;;;;10497924;28;20449;-82
2021/10/05 06:43:23;;;;;;;13.25;3.53;;;;;;;;;;10498160;28;20048;-81
2021/10/05 06:48:23;;;;;;;6.70;3.97;;;;;;;;;;10499254;28;20052;-81
2021/10/05 06:53:24;;;;;;;7.63;3.33;;;;;;;;;;10497574;28;20039;-81
2021/10/05 06:58:24;;;;;;;5.57;3.33;;;;;;;;;;10498319;28;20438;-81
2021/10/05 07:03:25;;;;;;;10.85;3.78;;;;;;;;;;10498821;28;20459;-82
2021/10/05 07:08:25;;;;;;;9.33;3.70;;;;;;;;;;10498167;28;20506;-82
2021/10/05 07:13:26;;;;;;;8.37;3.87;;;;;;;;;;10497695;28;20028;-82
2021/10/05 07:18:28;;;;;;;7.28;3.47;;;;;;;;;;10497351;28;20434;-82
2021/10/05 07:23:29;;;;;;;6.60;3.05;;;;;;;;;;10497026;28;20083;-82
2021/10/05 07:28:30;;;;;;;7.65;3.78;;;;;;;;;;10497791;28;20052;-82
2021/10/05 07:33:30;;;;;;;6.17;3.27;;;;;;;;;;10497071;28;20546;-82
2021/10/05 07:38:30;;;;;;;6.70;3.27;;;;;;;;;;10497321;28;20048;-83
2021/10/05 07:43:31;;;;;;;5.53;3.28;;;;;;;;;;10517810;22;20084;-82
2021/10/05 07:48:32;;;;;;;5.03;3.47;;;;;;;;;;10539222;28;20089;-82
2021/10/05 07:53:32;;;;;;;5.97;3.05;;;;;;;;;;10539168;28;20032;-82
2021/10/05 07:58:35;;;;;;;11.02;3.83;;;;;;;;;;10538371;28;20028;-82
2021/10/05 08:03:36;;;;;;;6.65;3.38;;;;;;;;;;10538971;28;20032;-82
2021/10/05 08:08:36;;;;;;;7.77;3.13;;;;;;;;;;10538025;28;20389;-82
2021/10/05 08:13:37;;;;;;;5.63;3.67;;;;;;;;;;10537640;28;20111;-82
2021/10/05 08:18:37;;;;;;;7.93;3.58;;;;;;;;;;10538657;28;20040;-81
2021/10/05 08:23:38;;;;;;;6.33;3.50;;;;;;;;;;10538885;28;20114;-81
2021/10/05 08:28:38;;;;;;;4.57;3.03;;;;;;;;;;10538283;28;20452;-81
2021/10/05 08:33:39;;;;;;;6.40;3.23;;;;;;;;;;10505913;28;20119;-82
2021/10/05 08:38:42;;;;;;;4.15;2.95;;;;;;;;;;10545328;28;20047;-82
2021/10/05 08:43:43;;;;;;;5.70;3.28;;;;;;;;;;10545021;28;20046;-83
2021/10/05 08:48:43;;;;;;;6.80;3.13;;;;;;;;;;10545246;28;20103;-83
2021/10/05 08:53:43;;;;;;;6.23;3.70;;;;;;;;;;10545707;28;20123;-83
2021/10/05 08:58:44;;;;;;;4.63;3.30;;;;;;;;;;10512255;28;20479;-82
2021/10/05 09:03:53;;;;;;;5.13;3.60;;;;;;;;;;10540329;28;20437;-82
2021/10/05 09:08:54;;;;;;;5.78;3.50;;;;;;;;;;10544073;28;20997;-83
2021/10/05 09:13:56;;;;;;;4.53;2.78;;;;;;;;;;10544007;28;20028;-82
2021/10/05 09:18:57;;;;;;;4.90;3.05;;;;;;;;;;10544677;28;20028;-83
2021/10/05 09:24:08;;;;;;;4.85;3.22;;;;;;;;;;10543642;28;20066;-83
2021/10/05 09:29:10;;;;;;;4.13;3.17;;;;;;;;;;10543661;28;20020;-82
2021/10/05 09:34:10;;;;;;;5.97;3.15;;;;;;;;;;10543065;28;20032;-82
2021/10/05 09:39:11;;;;;;;7.00;3.57;;;;;;;;;;10542906;28;20020;-82
2021/10/05 09:44:11;;;;;;;5.37;3.20;;;;;;;;;;10543171;28;20071;-82
2021/10/05 09:49:11;;;;;;;5.87;3.33;;;;;;;;;;10518220;28;20016;-82
2021/10/05 09:54:12;;;;;;;5.67;3.33;;;;;;;;;;10532178;28;20103;-82
2021/10/05 09:59:12;;;;;;;5.50;3.07;;;;;;;;;;10520159;28;20435;-82
2021/10/05 10:04:14;;;;;;;4.53;3.20;;;;;;;;;;10541965;28;20478;-83
2021/10/05 10:09:14;;;;;;;4.78;3.38;;;;;;;;;;10541552;28;20150;-83
2021/10/05 10:14:18;;;;;;;7.00;3.67;;;;;;;;;;10541928;28;20107;-82
2021/10/05 10:19:29;;;;;;;7.18;3.42;;;;;;;;;;10523142;28;20799;-82
2021/10/05 10:24:29;;;;;;;7.45;3.70;;;;;;;;;;10541399;28;20028;-83
2021/10/05 10:29:30;;;;;;;6.80;3.23;;;;;;;;;;10541274;28;20024;-82
2021/10/05 10:34:31;;;;;;;4.80;3.25;;;;;;;;;;10541295;28;20115;-83
2021/10/05 10:39:37;;;;;;;5.90;3.55;;;;;;;;;;10523070;28;20106;-84
2021/10/05 10:44:40;;;;;;;3.53;3.13;;;;;;;;;;10540098;28;20413;-83
2021/10/05 10:49:53;;;;;;;6.20;3.25;;;;;;;;;;10540597;28;20065;-83
2021/10/05 10:54:56;;;;;;;4.70;3.10;;;;;;;;;;10540425;28;20038;-83
2021/10/05 11:00:08;;;;;;;3.92;2.90;;;;;;;;;;10539819;28;20101;-83
2021/10/05 11:05:09;;;;;;;4.68;3.30;;;;;;;;;;10540177;28;20038;-83
2021/10/05 11:10:09;;;;;;;5.28;3.20;;;;;;;;;;10539132;28;20426;-82
2021/10/05 11:15:10;;;;;;;2.83;2.63;;;;;;;;;;10539403;28;20043;-82
2021/10/05 11:20:11;;;;;;;6.38;3.28;;;;;;;;;;10507576;28;20027;-83
2021/10/05 11:25:17;;;;;;;5.90;3.25;;;;;;;;;;10539701;28;20457;-82
2021/10/05 11:30:17;;;;;;;5.57;3.38;;;;;;;;;;10539579;28;20076;-83
2021/10/05 11:35:18;;;;;;;5.28;3.13;;;;;;;;;;10537491;28;20111;-93
2021/10/05 11:40:18;;;;;;;6.05;2.92;;;;;;;;;;10517627;28;20028;-93
2021/10/05 11:45:19;;;;;;;4.97;2.70;;;;;;;;;;10539563;28;20484;-82
2021/10/05 11:50:19;;;;;;;2.73;2.53;;;;;;;;;;10519756;28;20122;-84
2021/10/05 11:55:19;;;;;;;4.97;2.70;;;;;;;;;;10520442;28;20111;-83
2021/10/05 12:00:20;;;;;;;6.20;3.37;;;;;;;;;;10538552;28;20028;-83
2021/10/05 12:05:22;;;;;;;4.28;3.05;;;;;;;;;;10538175;28;20449;-83
2021/10/05 12:10:23;;;;;;;6.22;2.67;;;;;;;;;;10526973;28;20032;-83
2021/10/05 12:15:24;;;;;;;3.15;2.70;;;;;;;;;;10546503;28;20024;-82
2021/10/05 12:20:25;;;;;;;6.25;3.08;;;;;;;;;;10545647;28;20385;-83
2021/10/05 12:25:25;;;;;;;4.20;3.00;;;;;;;;;;10546081;28;20119;-83
2021/10/05 12:30:31;;;;;;;4.23;3.10;;;;;;;;;;10545617;28;20035;-82
2021/10/05 12:35:37;;;;;;;6.70;3.25;;;;;;;;;;10541569;28;20103;-83
2021/10/05 12:40:51;;;;;;;5.90;2.80;;;;;;;;;;10544950;28;20073;-83
2021/10/05 12:45:57;;;;;;;3.80;3.03;;;;;;;;;;10543915;28;20070;-83
2021/10/05 12:50:58;;;;;;;11.30;2.90;;;;;;;;;;10544071;28;20024;-82
2021/10/05 12:55:58;;;;;;;4.20;2.88;;;;;;;;;;10544065;28;20526;-83
2021/10/05 13:00:59;;;;;;;4.43;2.88;;;;;;;;;;10544575;28;20032;-82
2021/10/05 13:05:59;;;;;;;3.97;3.08;;;;;;;;;;10542035;28;20023;-82
2021/10/05 13:11:00;;;;;;;5.55;3.00;;;;;;;;;;10538999;28;20477;-81
2021/10/05 13:16:00;;;;;;;7.97;2.70;;;;;;;;;;10536657;28;20055;-82
2021/10/05 13:21:00;;;;;;;10.47;3.00;;;;;;;;;;10541403;28;20032;-84
2021/10/05 13:26:01;;;;;;;4.00;2.70;;;;;;;;;;10542959;28;20448;-83
2021/10/05 13:31:02;;;;;;;3.70;2.17;;;;;;;;;;10542188;28;20032;-83
2021/10/05 13:36:02;;;;;;;4.32;2.75;;;;;;;;;;10541213;28;20046;-82
2021/10/05 13:41:05;;;;;;;6.47;2.72;;;;;;;;;;10539112;28;20450;-83
2021/10/05 13:46:05;;;;;;;5.63;3.00;;;;;;;;;;10539876;28;20048;-83
2021/10/05 13:51:06;;;;;;;8.67;2.47;;;;;;;;;;10541299;28;20549;-83
2021/10/05 13:56:06;;;;;;;5.63;2.47;;;;;;;;;;10538379;28;20477;-83
2021/10/05 14:01:06;;;;;;;4.50;2.47;;;;;;;;;;10541870;28;20035;-82
2021/10/05 14:06:09;;;;;;;7.10;2.40;;;;;;;;;;10541885;28;20462;-82
2021/10/05 14:11:09;;;;;;;4.15;2.88;;;;;;;;;;10548464;28;20965;-83
2021/10/05 14:16:10;;;;;;;6.43;3.00;;;;;;;;;;10526192;28;20089;-82
2021/10/05 14:21:16;;;;;;;5.18;2.90;;;;;;;;;;10541066;28;20058;-82
2021/10/05 14:26:17;;;;;;;4.25;3.00;;;;;;;;;;10541195;28;20032;-81
2021/10/05 14:31:20;;;;;;;6.85;3.65;;;;;;;;;;10541193;28;20073;-82
2021/10/05 14:36:20;;;;;;;6.82;3.20;;;;;;;;;;10540090;28;20027;-82
2021/10/05 14:41:21;;;;;;;6.13;3.67;;;;;;;;;;10540723;28;20464;-82
2021/10/05 14:46:21;;;;;;;8.77;3.20;;;;;;;;;;10540932;28;20044;-81
2021/10/05 14:51:22;;;;;;;6.87;3.07;;;;;;;;;;10540477;28;20062;-82
2021/10/05 14:56:22;;;;;;;7.40;3.50;;;;;;;;;;10539974;28;20030;-82
2021/10/05 15:01:22;;;;;;;5.93;2.53;;;;;;;;;;10540023;28;20843;-81
2021/10/05 15:06:23;;;;;;;4.40;2.70;;;;;;;;;;10539359;28;20023;-82
2021/10/05 15:11:23;;;;;;;6.00;2.70;;;;;;;;;;10539302;28;20114;-82
2021/10/05 15:16:24;;;;;;;5.43;2.97;;;;;;;;;;10538845;28;20043;-81
2021/10/05 15:21:24;;;;;;;9.23;2.90;;;;;;;;;;10538966;28;20036;-81
2021/10/05 15:26:26;;;;;;;6.20;2.40;;;;;;;;;;10540116;28;20081;-82
2021/10/05 15:31:27;;;;;;;8.40;2.50;;;;;;;;;;10538411;28;20453;-80
2021/10/05 15:36:27;;;;;;;8.50;2.20;;;;;;;;;;10537266;28;20024;-80
2021/10/05 15:41:27;;;;;;;4.60;2.03;;;;;;;;;;10536884;28;20516;-82
2021/10/05 15:46:28;;;;;;;2.97;2.20;;;;;;;;;;10544963;28;20490;-81
2021/10/05 15:51:35;;;;;;;2.70;2.22;;;;;;;;;;10540475;28;20020;-81
2021/10/05 15:56:36;;;;;;;6.33;2.63;;;;;;;;;;10548549;28;20020;-80
2021/10/05 16:01:36;;;;;;;8.60;2.10;;;;;;;;;;10546646;28;20470;-81
2021/10/05 16:06:37;;;;;;;5.07;2.13;;;;;;;;;;10545036;28;20374;-81
2021/10/05 16:11:41;;;;;;;3.08;2.10;;;;;;;;;;10545444;28;20028;-81
2021/10/05 16:16:42;;;;;;;6.57;2.28;;;;;;;;;;10545669;28;20485;-81
2021/10/05 16:21:42;;;;;;;3.43;1.97;;;;;;;;;;10545386;28;20038;-81
2021/10/05 16:26:42;;;;;;;5.13;2.20;;;;;;;;;;10545245;28;20063;-82
2021/10/05 16:31:43;;;;;;;6.10;1.80;;;;;;;;;;10534057;28;20035;-80
2021/10/05 16:36:43;;;;;;;4.37;2.03;;;;;;;;;;10545365;28;20456;-79
2021/10/05 16:41:44;;;;;;;32.67;2.85;;;;;;;;;;10526290;28;20111;-82
2021/10/05 16:46:44;;;;;;;7.03;2.43;;;;;;;;;;10543818;28;20054;-82
2021/10/05 16:51:45;;;;;;;3.80;2.20;;;;;;;;;;10544242;28;20177;-82
2021/10/05 16:56:45;;;;;;;4.35;2.13;;;;;;;;;;10524819;28;20975;-82
2021/10/05 17:01:46;;;;;;;8.32;1.90;;;;;;;;;;10541057;28;20481;-83
2021/10/05 17:06:48;;;;;;;3.20;1.98;;;;;;;;;;10532413;28;20491;-85
2021/10/05 17:11:49;;;;;;;6.47;1.70;;;;;;;;;;10535945;28;20040;-87
2021/10/05 17:16:51;;;;;;;5.78;1.85;;;;;;;;;;10540612;28;20146;-81
2021/10/05 17:21:51;;;;;;;2.35;1.70;;;;;;;;;;10543293;28;20036;-82
2021/10/05 17:26:52;;;;;;;4.07;1.88;;;;;;;;;;10522181;28;20053;-83
2021/10/05 17:31:53;;;;;;;6.93;1.90;;;;;;;;;;10527591;28;20032;-83
2021/10/05 17:36:54;;;;;;;17.40;1.80;;;;;;;;;;10534432;28;20046;-83
2021/10/05 17:41:54;;;;;;;2.95;1.80;;;;;;;;;;10527146;28;20032;-82
2021/10/05 17:46:55;;;;;;;12.23;2.00;;;;;;;;;;10529314;28;20074;-82
2021/10/05 17:51:56;;;;;;;10.05;1.75;;;;;;;;;;10528449;28;20021;-81
2021/10/05 17:56:57;;;;;;;3.33;1.65;;;;;;;;;;10537411;28;20462;-82
2021/10/05 18:01:57;;;;;;;5.22;2.10;;;;;;;;;;10538497;28;20028;-82
2021/10/05 18:06:57;;;;;;;7.13;1.93;;;;;;;;;;10545283;28;20063;-82
2021/10/05 18:11:58;;;;;;;3.17;2.17;;;;;;;;;;10538965;28;20032;-82
2021/10/05 18:16:58;;;;;;;3.10;2.10;;;;;;;;;;10528698;28;20076;-82
2021/10/05 18:21:58;;;;;;;4.53;2.17;;;;;;;;;;10538293;28;21020;-82
2021/10/05 18:26:59;;;;;;;3.17;2.20;;;;;;;;;;10532072;28;20036;-84
2021/10/05 18:32:00;;;;;;;7.63;2.40;;;;;;;;;;10536194;28;20445;-82
2021/10/05 18:37:00;;;;;;;7.13;2.20;;;;;;;;;;10540867;28;20035;-82
2021/10/05 18:42:01;;;;;;;2.40;1.90;;;;;;;;;;10540317;28;20028;-82
2021/10/05 18:47:01;;;;;;;3.47;2.22;;;;;;;;;;10536958;28;20052;-82
2021/10/05 18:52:02;;;;;;;6.00;2.45;;;;;;;;;;10535583;28;20042;-82
2021/10/05 18:57:02;;;;;;;5.10;2.28;;;;;;;;;;10531963;28;20035;-81
2021/10/05 19:02:03;;;;;;;7.13;2.25;;;;;;;;;;10539686;28;20382;-81
2021/10/05 19:07:03;;;;;;;6.82;2.20;;;;;;;;;;10539908;28;20032;-81
2021/10/05 19:12:04;;;;;;;9.90;2.30;;;;;;;;;;10539598;28;20055;-81
2021/10/05 19:17:05;;;;;;;11.23;3.25;;;;;;;;;;10539971;28;20479;-81
2021/10/05 19:22:05;;;;;;;5.25;2.58;;;;;;;;;;10539216;28;20020;-82
2021/10/05 19:27:10;;;;;;;7.27;2.60;;;;;;;;;;10539332;28;20529;-81
2021/10/05 19:32:10;;;;;;;9.23;2.67;;;;;;;;;;10539742;28;20034;-81
2021/10/05 19:37:11;;;;;;;5.93;2.20;;;;;;;;;;10516422;28;20419;-81
2021/10/05 19:42:11;;;;;;;5.83;1.93;;;;;;;;;;10544348;22;20036;-81
2021/10/05 19:47:12;;;;;;;4.20;2.00;;;;;;;;;;10540021;28;20127;-81
2021/10/05 19:52:12;;;;;;;11.63;2.75;;;;;;;;;;10539021;28;20043;-81
2021/10/05 19:57:12;;;;;;;9.60;2.47;;;;;;;;;;10538872;28;20059;-81
2021/10/05 20:02:13;;;;;;;9.83;2.50;;;;;;;;;;10538619;28;20032;-81
2021/10/05 20:07:19;;;;;;;6.05;1.95;;;;;;;;;;10539319;28;20020;-81
2021/10/05 20:12:20;;;;;;;4.68;1.75;;;;;;;;;;10537687;28;20111;-81
2021/10/05 20:17:20;;;;;;;7.95;2.10;;;;;;;;;;10539190;28;20043;-81
2021/10/05 20:22:20;;;;;;;7.00;2.20;;;;;;;;;;10538976;28;20103;-81
2021/10/05 20:27:21;;;;;;;7.20;2.13;;;;;;;;;;10538890;28;20093;-82
2021/10/05 20:32:21;;;;;;;4.38;1.88;;;;;;;;;;10541539;28;20059;-82
2021/10/05 20:37:23;;;;;;;3.73;2.10;;;;;;;;;;10544119;28;20028;-82
2021/10/05 20:42:23;;;;;;;4.65;2.22;;;;;;;;;;10533858;28;20441;-82
2021/10/05 20:47:25;;;;;;;6.80;2.07;;;;;;;;;;10534089;28;20060;-82
2021/10/05 20:52:25;;;;;;;8.10;2.20;;;;;;;;;;10542693;28;20473;-82
2021/10/05 20:57:25;;;;;;;4.53;2.23;;;;;;;;;;10529725;28;20389;-83
2021/10/05 21:02:26;;;;;;;7.27;1.83;;;;;;;;;;10528585;28;20444;-80
2021/10/05 21:07:26;;;;;;;5.37;1.80;;;;;;;;;;10542831;28;20466;-81
2021/10/05 21:12:27;;;;;;;7.73;2.30;;;;;;;;;;10540394;28;20115;-79
2021/10/05 21:17:27;;;;;;;4.55;2.10;;;;;;;;;;10534413;28;20020;-81
2021/10/05 21:22:28;;;;;;;6.07;1.93;;;;;;;;;;10539872;28;20038;-81
2021/10/05 21:27:28;;;;;;;18.67;2.78;;;;;;;;;;10531559;28;20048;-85
2021/10/05 21:32:28;;;;;;;3.43;1.87;;;;;;;;;;10544459;28;20012;-81
